createdAt,value
2023-02-24T00:02:15.627Z,35.80
2023-02-24T00:04:45.757Z,29.10
2023-02-24T00:07:14.265Z,30.70
2023-02-24T00:09:44.774Z,31.60
2023-02-24T00:12:14.602Z,27.60
2023-02-24T00:14:48.809Z,30.20
2023-02-24T00:17:18.517Z,29.80
2023-02-24T00:19:47.363Z,32.80
2023-02-24T00:22:16.339Z,22.80
2023-02-24T00:24:44.953Z,26.80
2023-02-24T00:27:13.396Z,26.60
2023-02-24T00:29:46.362Z,24.30
2023-02-24T00:32:15.147Z,27.80
2023-02-24T00:34:45.056Z,28.90
2023-02-24T00:37:15.615Z,26.50
2023-02-24T00:39:48.186Z,31.10
2023-02-24T00:42:17.545Z,30.90
2023-02-24T00:44:47.284Z,28.00
2023-02-24T00:47:17.599Z,24.10
2023-02-24T00:49:46.416Z,25.60
2023-02-24T00:52:19.549Z,31.70
2023-02-24T00:54:49.556Z,23.50
2023-02-24T00:57:20.097Z,22.00
2023-02-24T00:59:51.990Z,26.90
2023-02-24T01:02:22.002Z,24.80
2023-02-24T01:04:51.643Z,21.70
2023-02-24T01:07:21.052Z,25.30
2023-02-24T01:09:50.293Z,25.10
2023-02-24T01:12:49.684Z,24.50
2023-02-24T01:15:20.725Z,18.80
2023-02-24T01:17:50.211Z,27.50
2023-02-24T01:20:19.275Z,20.10
2023-02-24T01:22:49.858Z,22.70
2023-02-24T01:25:20.827Z,18.40
2023-02-24T01:27:49.726Z,28.20
2023-02-24T01:30:18.890Z,22.00
2023-02-24T01:32:49.370Z,27.30
2023-02-24T01:35:25.951Z,22.40
2023-02-24T01:37:54.700Z,21.30
2023-02-24T01:40:27.134Z,24.30
2023-02-24T01:42:56.916Z,24.20
2023-02-24T01:45:29.111Z,24.90
2023-02-24T01:48:00.748Z,27.40
2023-02-24T01:50:29.403Z,25.00
2023-02-24T01:53:01.172Z,21.30
2023-02-24T01:55:41.026Z,19.40
2023-02-24T01:58:15.902Z,25.20
2023-02-24T02:00:48.261Z,21.90
2023-02-24T02:03:31.799Z,26.60
2023-02-24T02:06:02.910Z,20.60
2023-02-24T02:08:32.788Z,22.40
2023-02-24T02:11:04.298Z,25.90
2023-02-24T02:13:43.431Z,24.20
2023-02-24T02:16:51.671Z,20.70
2023-02-24T02:20:00.806Z,24.40
2023-02-24T02:22:49.986Z,16.30
2023-02-24T02:25:54.956Z,20.00
2023-02-24T02:28:57.160Z,24.10
2023-02-24T02:31:46.878Z,17.10
2023-02-24T02:34:40.253Z,25.20
2023-02-24T02:37:12.438Z,27.50
2023-02-24T02:39:52.790Z,23.70
2023-02-24T02:42:59.149Z,24.20
2023-02-24T02:45:41.116Z,20.10
2023-02-24T02:48:22.468Z,24.10
2023-02-24T02:51:04.453Z,21.00
2023-02-24T02:53:50.760Z,25.20
2023-02-24T02:56:24.522Z,24.60
2023-02-24T02:58:54.584Z,23.10
2023-02-24T03:01:26.639Z,23.60
2023-02-24T03:03:57.506Z,20.20
2023-02-24T03:06:30.807Z,23.40
2023-02-24T03:09:18.442Z,20.10
2023-02-24T03:11:53.333Z,20.80
2023-02-24T03:14:24.552Z,24.60
2023-02-24T03:16:53.326Z,29.20
2023-02-24T03:19:28.438Z,27.40
2023-02-24T03:22:01.581Z,24.60
2023-02-24T03:24:30.755Z,24.10
2023-02-24T03:27:09.280Z,24.40
2023-02-24T03:29:42.442Z,21.70
2023-02-24T03:32:20.351Z,21.00
2023-02-24T03:35:00.990Z,28.00
2023-02-24T03:37:30.317Z,25.50
2023-02-24T03:40:12.024Z,22.80
2023-02-24T03:42:43.941Z,26.20
2023-02-24T03:45:12.594Z,25.50
2023-02-24T03:47:41.333Z,25.90
2023-02-24T03:50:17.789Z,25.60
2023-02-24T03:53:11.482Z,26.20
2023-02-24T03:55:44.967Z,26.80
2023-02-24T03:58:39.370Z,21.20
2023-02-24T04:01:42.763Z,29.60
2023-02-24T04:04:33.372Z,20.30
2023-02-24T04:07:17.648Z,25.40
2023-02-24T04:10:09.911Z,25.00
2023-02-24T04:12:52.607Z,26.80
2023-02-24T04:17:57.798Z,19.80
2023-02-24T04:20:31.169Z,25.60
2023-02-24T04:23:28.934Z,25.20
2023-02-24T04:25:59.509Z,25.10
2023-02-24T04:28:30.197Z,30.70
2023-02-24T04:31:06.286Z,26.60
2023-02-24T04:33:38.747Z,23.40
2023-02-24T04:36:09.327Z,24.20
2023-02-24T04:38:41.709Z,31.20
2023-02-24T04:41:10.625Z,29.00
2023-02-24T04:43:39.268Z,30.20
2023-02-24T04:46:08.280Z,25.90
2023-02-24T04:48:39.363Z,25.40
2023-02-24T04:51:09.575Z,24.00
2023-02-24T04:53:38.367Z,31.00
2023-02-24T04:56:10.770Z,27.80
2023-02-24T04:58:41.379Z,16.60
2023-02-24T05:01:11.013Z,26.20
2023-02-24T05:06:17.404Z,22.00
2023-02-24T05:08:47.151Z,30.40
2023-02-24T05:11:16.342Z,26.70
2023-02-24T05:13:48.082Z,26.80
2023-02-24T05:16:18.208Z,26.20
2023-02-24T05:18:49.854Z,28.80
2023-02-24T05:21:37.132Z,22.80
2023-02-24T05:24:08.777Z,21.00
2023-02-24T05:26:43.605Z,30.10
2023-02-24T05:29:15.219Z,23.10
2023-02-24T05:31:44.678Z,23.10
2023-02-24T05:34:17.479Z,26.30
2023-02-24T05:36:46.840Z,27.40
2023-02-24T05:39:19.534Z,24.40
2023-02-24T05:41:49.215Z,20.50
2023-02-24T05:44:23.510Z,31.20
2023-02-24T05:46:59.357Z,27.10
2023-02-24T05:49:33.287Z,23.90
2023-02-24T05:52:10.252Z,33.90
2023-02-24T05:54:42.285Z,31.90
2023-02-24T05:57:21.409Z,28.50
2023-02-24T05:59:53.489Z,32.30
2023-02-24T06:02:28.222Z,42.40
2023-02-24T06:04:59.078Z,35.00
2023-02-24T06:07:28.704Z,40.10
2023-02-24T06:09:58.899Z,43.80
2023-02-24T06:12:29.481Z,34.70
2023-02-24T06:15:07.982Z,35.40
2023-02-24T06:17:39.767Z,39.10
2023-02-24T06:20:15.418Z,24.20
2023-02-24T06:22:44.068Z,26.60
2023-02-24T06:27:45.230Z,32.50
2023-02-24T06:30:15.420Z,27.30
2023-02-24T06:32:45.239Z,25.60
2023-02-24T06:35:16.816Z,24.40
2023-02-24T06:37:51.233Z,36.20
2023-02-24T06:40:20.255Z,28.30
2023-02-24T06:42:50.155Z,30.90
2023-02-24T06:45:19.210Z,27.90
2023-02-24T06:47:49.071Z,33.50
2023-02-24T06:50:21.968Z,25.10
2023-02-24T06:52:53.368Z,31.20
2023-02-24T06:55:28.073Z,33.70
2023-02-24T06:57:58.962Z,28.00
2023-02-24T07:00:41.024Z,24.10
2023-02-24T07:03:16.159Z,27.20
2023-02-24T07:05:54.614Z,30.90
2023-02-24T07:08:24.918Z,25.80
2023-02-24T07:10:58.347Z,28.00
2023-02-24T07:13:30.194Z,28.80
2023-02-24T07:16:07.478Z,27.00
2023-02-24T07:18:40.837Z,22.70
2023-02-24T07:21:11.786Z,22.20
2023-02-24T07:23:41.949Z,16.70
2023-02-24T07:26:14.977Z,22.10
2023-02-24T07:28:43.880Z,20.90
2023-02-24T07:31:14.193Z,24.70
2023-02-24T07:33:46.948Z,19.20
2023-02-24T07:36:23.461Z,27.00
2023-02-24T07:38:53.570Z,21.60
2023-02-24T07:41:23.318Z,18.60
2023-02-24T07:43:54.740Z,17.40
2023-02-24T07:46:26.242Z,21.90
2023-02-24T07:48:55.875Z,21.20
2023-02-24T07:51:25.696Z,16.40
2023-02-24T07:54:02.943Z,19.20
2023-02-24T07:56:46.272Z,22.60
2023-02-24T07:59:16.224Z,18.60
2023-02-24T08:01:51.936Z,22.50
2023-02-24T08:04:23.599Z,18.40
2023-02-24T08:06:56.407Z,16.70
2023-02-24T08:09:46.383Z,22.20
2023-02-24T08:12:22.112Z,24.30
2023-02-24T08:14:53.427Z,20.70
2023-02-24T08:17:26.921Z,17.50
2023-02-24T08:20:22.965Z,19.00
2023-02-24T08:22:53.299Z,24.10
2023-02-24T08:25:36.205Z,27.00
2023-02-24T08:28:09.412Z,26.10
2023-02-24T08:30:45.825Z,28.10
2023-02-24T08:33:20.530Z,18.00
2023-02-24T08:36:01.713Z,16.10
2023-02-24T08:38:52.244Z,18.20
2023-02-24T08:41:29.474Z,22.10
2023-02-24T08:43:58.772Z,18.30
2023-02-24T08:46:33.131Z,19.40
2023-02-24T08:49:11.042Z,20.30
2023-02-24T08:51:44.574Z,24.30
2023-02-24T08:54:18.288Z,23.20
2023-02-24T08:56:56.308Z,17.20
2023-02-24T08:59:38.745Z,26.40
2023-02-24T09:02:18.872Z,25.20
2023-02-24T09:04:49.254Z,18.80
2023-02-24T09:07:21.180Z,27.60
2023-02-24T09:09:50.480Z,23.90
2023-02-24T09:12:22.314Z,25.20
2023-02-24T09:15:07.774Z,22.60
2023-02-24T09:17:45.690Z,22.20
2023-02-24T09:20:42.810Z,18.70
2023-02-24T09:23:20.477Z,17.00
2023-02-24T09:25:57.549Z,21.00
2023-02-24T09:28:27.694Z,20.10
2023-02-24T09:31:00.623Z,13.90
2023-02-24T09:33:39.765Z,19.30
2023-02-24T09:36:20.511Z,14.90
2023-02-24T09:39:00.647Z,15.50
2023-02-24T09:42:06.610Z,14.90
2023-02-24T09:44:36.199Z,11.00
2023-02-24T09:47:17.468Z,17.20
2023-02-24T09:49:59.333Z,13.10
2023-02-24T09:52:41.823Z,14.10
2023-02-24T09:55:27.386Z,10.90
2023-02-24T09:58:34.804Z,13.00
2023-02-24T10:01:52.825Z,14.00
2023-02-24T10:04:27.806Z,13.90
2023-02-24T10:07:03.284Z,15.90
2023-02-24T10:09:38.154Z,12.20
2023-02-24T10:12:06.871Z,11.90
2023-02-24T10:15:19.212Z,12.90
2023-02-24T10:17:56.619Z,16.70
2023-02-24T10:20:31.358Z,12.60
2023-02-24T10:23:33.166Z,16.10
2023-02-24T10:26:08.281Z,19.40
2023-02-24T10:28:53.657Z,17.80
2023-02-24T10:31:37.185Z,13.90
2023-02-24T10:34:10.347Z,14.10
2023-02-24T10:36:42.060Z,17.60
2023-02-24T10:39:16.085Z,12.50
2023-02-24T10:41:47.254Z,13.00
2023-02-24T10:44:26.611Z,13.70
2023-02-24T10:47:14.231Z,13.00
2023-02-24T10:49:58.099Z,9.30
2023-02-24T10:52:55.380Z,14.90
2023-02-24T10:55:29.306Z,10.80
2023-02-24T10:58:08.212Z,14.00
2023-02-24T11:01:00.272Z,15.20
2023-02-24T11:03:42.437Z,14.30
2023-02-24T11:06:40.333Z,15.80
2023-02-24T11:09:19.818Z,12.40
2023-02-24T11:12:08.126Z,13.50
2023-02-24T11:15:08.284Z,12.10
2023-02-24T11:17:45.113Z,14.90
2023-02-24T11:20:47.485Z,14.60
2023-02-24T11:23:24.042Z,17.90
2023-02-24T11:25:54.736Z,17.30
2023-02-24T11:29:07.136Z,15.90
2023-02-24T11:31:56.349Z,14.00
2023-02-24T11:34:49.753Z,14.50
2023-02-24T11:37:38.231Z,13.30
2023-02-24T11:40:17.675Z,12.60
2023-02-24T11:42:52.084Z,13.00
2023-02-24T11:45:34.275Z,17.60
2023-02-24T11:48:17.460Z,12.30
2023-02-24T11:51:18.776Z,15.10
2023-02-24T11:54:12.454Z,14.80
2023-02-24T11:56:56.334Z,14.00
2023-02-24T11:59:37.115Z,14.40
2023-02-24T12:02:06.506Z,14.30
2023-02-24T12:04:43.783Z,14.30
2023-02-24T12:07:22.278Z,16.00
2023-02-24T12:10:07.032Z,13.40
2023-02-24T12:12:56.049Z,14.60
2023-02-24T12:16:03.993Z,9.90
2023-02-24T12:18:40.436Z,11.80
2023-02-24T12:21:31.556Z,14.70
2023-02-24T12:24:01.452Z,21.10
2023-02-24T12:27:01.596Z,12.40
2023-02-24T12:29:35.646Z,12.60
2023-02-24T12:32:25.447Z,12.10
2023-02-24T12:35:14.260Z,10.40
2023-02-24T12:37:51.183Z,14.20
2023-02-24T12:40:46.057Z,14.80
2023-02-24T12:43:35.803Z,10.90
2023-02-24T12:46:22.541Z,10.60
2023-02-24T12:49:48.504Z,10.80
2023-02-24T12:52:35.810Z,12.20
2023-02-24T12:55:06.058Z,10.90
2023-02-24T12:57:43.614Z,14.80
2023-02-24T13:00:47.687Z,18.50
2023-02-24T13:03:35.200Z,13.40
2023-02-24T13:06:52.769Z,12.80
2023-02-24T13:09:40.475Z,18.30
2023-02-24T13:12:15.139Z,12.80
2023-02-24T13:14:46.601Z,16.50
2023-02-24T13:17:21.715Z,11.10
2023-02-24T13:19:52.546Z,10.60
2023-02-24T13:22:42.273Z,9.80
2023-02-24T13:25:18.881Z,16.00
2023-02-24T13:28:00.199Z,17.50
2023-02-24T13:30:34.583Z,13.60
2023-02-24T13:33:27.913Z,11.40
2023-02-24T13:36:26.251Z,13.00
2023-02-24T13:38:57.790Z,11.10
2023-02-24T13:44:06.007Z,15.20
2023-02-24T13:46:47.668Z,10.80
2023-02-24T13:49:26.822Z,15.40
2023-02-24T13:52:30.658Z,16.00
2023-02-24T13:55:18.540Z,13.00
2023-02-24T13:57:49.592Z,20.30
2023-02-24T14:00:27.214Z,12.40
2023-02-24T14:02:55.902Z,17.80
2023-02-24T14:05:30.083Z,14.70
2023-02-24T14:07:58.871Z,10.90
2023-02-24T14:10:30.202Z,11.80
2023-02-24T14:13:05.104Z,12.30
2023-02-24T14:15:35.432Z,13.60
2023-02-24T14:18:05.609Z,16.90
2023-02-24T14:20:35.518Z,13.60
2023-02-24T14:23:20.302Z,14.30
2023-02-24T14:25:48.948Z,14.10
2023-02-24T14:28:23.588Z,16.60
2023-02-24T14:30:54.288Z,13.50
2023-02-24T14:33:31.828Z,12.50
2023-02-24T14:36:07.503Z,17.90
2023-02-24T14:38:40.276Z,15.10
2023-02-24T14:41:20.031Z,20.20
2023-02-24T14:43:50.206Z,11.50
2023-02-24T14:46:19.814Z,13.40
2023-02-24T14:48:55.299Z,17.30
2023-02-24T14:51:35.845Z,13.40
2023-02-24T14:54:07.879Z,11.00
2023-02-24T14:56:37.440Z,8.00
2023-02-24T14:59:09.282Z,10.70
2023-02-24T15:01:44.257Z,10.10
2023-02-24T15:04:24.898Z,9.70
2023-02-24T15:06:53.935Z,13.20
2023-02-24T15:09:24.565Z,7.20
2023-02-24T15:11:56.727Z,11.10
2023-02-24T15:14:31.919Z,10.70
2023-02-24T15:17:08.913Z,11.50
2023-02-24T15:19:44.327Z,16.80
2023-02-24T15:22:33.889Z,11.70
2023-02-24T15:25:28.070Z,13.70
2023-02-24T15:28:03.554Z,12.60
2023-02-24T15:30:34.997Z,11.70
2023-02-24T15:33:12.216Z,9.30
2023-02-24T15:35:50.661Z,10.00
2023-02-24T15:38:45.620Z,12.40
2023-02-24T15:41:14.714Z,12.60
2023-02-24T15:43:43.557Z,7.90
2023-02-24T15:46:19.588Z,9.10
2023-02-24T15:48:50.262Z,12.90
2023-02-24T15:51:25.765Z,13.80
2023-02-24T15:53:54.600Z,11.80
2023-02-24T15:56:23.460Z,13.20
2023-02-24T15:58:52.836Z,11.10
2023-02-24T16:01:21.703Z,9.30
2023-02-24T16:03:50.825Z,9.80
2023-02-24T16:06:21.404Z,12.30
2023-02-24T16:08:50.653Z,11.70
2023-02-24T16:11:22.059Z,10.00
2023-02-24T16:13:55.948Z,9.80
2023-02-24T16:16:25.506Z,7.50
2023-02-24T16:18:57.463Z,13.00
2023-02-24T16:21:26.971Z,11.60
2023-02-24T16:23:55.667Z,10.20
2023-02-24T16:26:24.720Z,7.20
2023-02-24T16:28:55.451Z,13.90
2023-02-24T16:31:25.843Z,13.00
2023-02-24T16:33:56.216Z,13.90
2023-02-24T16:36:25.599Z,14.40
2023-02-24T16:38:55.188Z,10.10
2023-02-24T16:41:24.209Z,11.20
2023-02-24T16:43:52.952Z,9.90
2023-02-24T16:46:25.475Z,16.70
2023-02-24T16:48:54.287Z,14.20
2023-02-24T16:51:24.272Z,13.00
2023-02-24T16:53:54.586Z,12.60
2023-02-24T16:56:23.491Z,10.10
2023-02-24T16:58:52.322Z,8.90
2023-02-24T17:01:21.447Z,11.10
2023-02-24T17:03:51.881Z,12.70
2023-02-24T17:06:22.421Z,12.40
2023-02-24T17:08:52.689Z,10.40
2023-02-24T17:11:21.527Z,13.10
2023-02-24T17:13:50.363Z,16.30
2023-02-24T17:16:19.565Z,19.40
2023-02-24T17:18:49.239Z,23.60
2023-02-24T17:21:18.435Z,12.60
2023-02-24T17:23:46.746Z,10.10
2023-02-24T17:26:15.402Z,11.50
2023-02-24T17:28:43.841Z,10.70
2023-02-24T17:31:13.079Z,13.60
2023-02-24T17:33:42.404Z,11.50
2023-02-24T17:36:11.167Z,13.40
2023-02-24T17:38:39.829Z,11.50
2023-02-24T17:41:11.126Z,22.30
2023-02-24T17:43:40.191Z,24.60
2023-02-24T17:46:11.781Z,34.10
2023-02-24T17:48:41.022Z,25.90
2023-02-24T17:51:16.987Z,19.70
2023-02-24T17:53:46.315Z,18.10
2023-02-24T17:56:14.553Z,17.40
2023-02-24T17:58:43.432Z,18.80
2023-02-24T18:01:12.170Z,10.80
2023-02-24T18:03:43.108Z,9.20
2023-02-24T18:06:13.124Z,9.10
2023-02-24T18:08:43.561Z,13.00
2023-02-24T18:11:17.321Z,10.40
2023-02-24T18:13:51.166Z,8.90
2023-02-24T18:16:20.360Z,8.80
2023-02-24T18:18:50.133Z,7.70
2023-02-24T18:21:18.891Z,9.20
2023-02-24T18:23:49.842Z,15.60
2023-02-24T18:28:58.343Z,12.20
2023-02-24T18:31:27.876Z,10.90
2023-02-24T18:33:57.228Z,14.20
2023-02-24T18:36:26.585Z,14.20
2023-02-24T18:38:56.752Z,7.80
2023-02-24T18:41:25.481Z,11.00
2023-02-24T18:43:55.769Z,12.90
2023-02-24T18:46:25.692Z,12.70
2023-02-24T18:48:55.944Z,15.20
2023-02-24T18:51:26.713Z,8.70
2023-02-24T18:53:57.581Z,14.80
2023-02-24T18:56:28.110Z,21.00
2023-02-24T18:58:59.002Z,56.60
2023-02-24T19:01:32.514Z,54.30
2023-02-24T19:04:05.794Z,41.30
2023-02-24T19:06:37.112Z,30.60
2023-02-24T19:09:10.583Z,26.90
2023-02-24T19:11:40.290Z,29.70
2023-02-24T19:14:11.964Z,27.80
2023-02-24T19:16:41.251Z,12.70
2023-02-24T19:19:14.576Z,8.00
2023-02-24T19:21:45.747Z,13.50
2023-02-24T19:24:17.450Z,11.60
2023-02-24T19:26:47.780Z,14.80
2023-02-24T19:29:22.290Z,13.00
2023-02-24T19:31:54.378Z,13.70
2023-02-24T19:34:23.319Z,11.20
2023-02-24T19:36:52.156Z,11.20
2023-02-24T19:39:21.174Z,9.70
2023-02-24T19:41:53.898Z,20.30
2023-02-24T19:44:24.064Z,10.30
2023-02-24T19:46:53.654Z,11.90
2023-02-24T19:49:22.425Z,12.30
2023-02-24T19:51:55.847Z,10.60
2023-02-24T19:54:24.698Z,15.10
2023-02-24T19:56:57.475Z,16.00
2023-02-24T19:59:26.396Z,12.00
2023-02-24T20:01:56.918Z,14.90
2023-02-24T20:04:25.728Z,16.90
2023-02-24T20:06:57.959Z,16.50
2023-02-24T20:09:27.247Z,12.10
2023-02-24T20:11:57.585Z,14.20
2023-02-24T20:14:27.839Z,15.90
2023-02-24T20:16:57.204Z,15.00
2023-02-24T20:19:25.885Z,15.90
2023-02-24T20:21:55.282Z,16.80
2023-02-24T20:24:24.190Z,13.20
2023-02-24T20:26:53.180Z,13.80
2023-02-24T20:29:22.618Z,17.60
2023-02-24T20:31:51.798Z,22.80
2023-02-24T20:34:22.749Z,17.20
2023-02-24T20:36:56.675Z,17.00
2023-02-24T20:39:25.694Z,22.60
2023-02-24T20:41:54.806Z,19.40
2023-02-24T20:44:24.887Z,16.60
2023-02-24T20:46:53.912Z,21.60
2023-02-24T20:49:23.975Z,19.30
2023-02-24T20:51:53.257Z,21.90
2023-02-24T20:54:23.174Z,34.80
2023-02-24T20:56:53.805Z,22.60
2023-02-24T20:59:22.442Z,24.10
2023-02-24T21:01:51.658Z,28.30
2023-02-24T21:04:21.058Z,22.50
2023-02-24T21:06:52.280Z,28.50
2023-02-24T21:09:25.747Z,23.60
2023-02-24T21:11:54.405Z,18.60
2023-02-24T21:14:23.441Z,20.50
2023-02-24T21:16:56.190Z,21.00
2023-02-24T21:19:25.748Z,22.10
2023-02-24T21:21:54.538Z,27.80
2023-02-24T21:24:26.887Z,17.90
2023-02-24T21:26:55.581Z,19.20
2023-02-24T21:29:24.081Z,21.40
2023-02-24T21:31:53.698Z,22.60
2023-02-24T21:34:22.650Z,25.40
2023-02-24T21:36:51.424Z,21.90
2023-02-24T21:39:21.070Z,21.80
2023-02-24T21:41:50.067Z,20.50
2023-02-24T21:44:19.274Z,20.00
2023-02-24T21:46:48.827Z,23.60
2023-02-24T21:49:18.552Z,22.40
2023-02-24T21:51:50.992Z,20.40
2023-02-24T21:54:19.781Z,24.70
2023-02-24T21:56:48.563Z,22.20
2023-02-24T21:59:17.621Z,19.70
2023-02-24T22:01:47.241Z,24.70
2023-02-24T22:04:17.338Z,23.10
2023-02-24T22:06:47.666Z,22.80
2023-02-24T22:09:20.113Z,23.80
2023-02-24T22:11:49.500Z,21.60
2023-02-24T22:14:19.296Z,27.50
2023-02-24T22:16:48.059Z,25.60
2023-02-24T22:19:20.467Z,24.30
2023-02-24T22:21:49.500Z,25.70
2023-02-24T22:24:21.246Z,27.10
2023-02-24T22:26:51.334Z,26.40
2023-02-24T22:29:19.964Z,27.50
2023-02-24T22:31:49.812Z,21.80
2023-02-24T22:34:18.770Z,19.40
2023-02-24T22:36:48.829Z,22.80
2023-02-24T22:39:17.839Z,22.10
2023-02-24T22:41:47.794Z,19.00
2023-02-24T22:44:19.465Z,37.50
2023-02-24T22:46:48.553Z,31.50
2023-02-24T22:49:17.675Z,26.30
2023-02-24T22:51:46.526Z,25.50
2023-02-24T22:54:17.373Z,28.40
2023-02-24T22:56:46.300Z,27.00
2023-02-24T22:59:17.438Z,31.90
2023-02-24T23:01:46.737Z,25.80
2023-02-24T23:04:16.388Z,26.90
2023-02-24T23:06:47.433Z,28.00
2023-02-24T23:09:20.204Z,21.30
2023-02-24T23:11:48.816Z,26.50
2023-02-24T23:14:17.886Z,25.30
2023-02-24T23:16:56.044Z,24.80
2023-02-24T23:19:24.737Z,26.70
2023-02-24T23:21:53.620Z,23.50
2023-02-24T23:24:22.807Z,21.40
2023-02-24T23:26:54.295Z,25.50
2023-02-24T23:29:24.635Z,30.30
2023-02-24T23:31:54.282Z,25.80
2023-02-24T23:34:22.955Z,25.80
2023-02-24T23:36:52.384Z,26.80
2023-02-24T23:39:24.167Z,26.50
2023-02-24T23:41:56.837Z,25.90
2023-02-24T23:44:25.920Z,28.50
2023-02-24T23:46:55.002Z,26.10
2023-02-24T23:49:24.259Z,24.50
2023-02-24T23:51:53.951Z,22.00
2023-02-24T23:54:23.359Z,23.40
2023-02-24T23:56:51.989Z,22.00
2023-02-24T23:59:22.164Z,22.90
